createdAt,value
2018-11-26T00:00:29.900Z,12.40
2018-11-26T00:02:58.560Z,12.40
2018-11-26T00:05:27.265Z,12.40
2018-11-26T00:07:56.095Z,12.50
2018-11-26T00:10:35.900Z,12.40
2018-11-26T00:13:04.720Z,12.50
2018-11-26T00:15:33.271Z,12.50
2018-11-26T00:18:01.955Z,12.40
2018-11-26T00:20:30.587Z,12.50
2018-11-26T00:22:59.217Z,12.40
2018-11-26T00:25:28.026Z,12.30
2018-11-26T00:27:56.551Z,12.30
2018-11-26T00:30:25.226Z,12.30
2018-11-26T00:32:53.836Z,12.20
2018-11-26T00:35:22.648Z,12.30
2018-11-26T00:37:51.439Z,12.30
2018-11-26T00:40:20.111Z,12.30
2018-11-26T00:42:48.761Z,12.30
2018-11-26T00:45:17.307Z,12.30
2018-11-26T00:47:46.089Z,12.30
2018-11-26T00:50:14.883Z,12.40
2018-11-26T00:52:43.617Z,12.40
2018-11-26T00:55:12.452Z,12.40
2018-11-26T00:57:41.059Z,12.30
2018-11-26T01:00:11.402Z,12.50
2018-11-26T01:02:40.334Z,12.40
2018-11-26T01:05:11.594Z,12.40
2018-11-26T01:07:40.225Z,12.40
2018-11-26T01:10:08.775Z,12.40
2018-11-26T01:12:37.489Z,12.40
2018-11-26T01:15:07.156Z,12.50
2018-11-26T01:17:35.942Z,12.50
2018-11-26T01:20:04.755Z,12.50
2018-11-26T01:22:33.621Z,12.40
2018-11-26T01:25:02.393Z,12.40
2018-11-26T01:27:31.024Z,12.40
2018-11-26T01:29:59.606Z,12.30
2018-11-26T01:32:28.149Z,12.30
2018-11-26T01:34:56.834Z,12.30
2018-11-26T01:37:25.573Z,12.30
2018-11-26T01:39:54.253Z,12.40
2018-11-26T01:42:22.937Z,12.40
2018-11-26T01:44:51.533Z,12.50
2018-11-26T01:47:20.121Z,12.50
2018-11-26T01:49:48.743Z,12.40
2018-11-26T01:52:17.453Z,12.40
2018-11-26T01:54:46.136Z,12.30
2018-11-26T01:57:14.671Z,12.30
2018-11-26T01:59:43.263Z,12.30
2018-11-26T02:02:12.095Z,12.30
2018-11-26T02:04:40.660Z,12.20
2018-11-26T02:07:09.440Z,12.30
2018-11-26T02:09:38.333Z,12.40
2018-11-26T02:12:07.091Z,12.30
2018-11-26T02:14:35.734Z,12.30
2018-11-26T02:17:04.419Z,12.30
2018-11-26T02:19:32.965Z,12.20
2018-11-26T02:22:01.646Z,12.30
2018-11-26T02:24:30.286Z,12.30
2018-11-26T02:26:59.013Z,12.20
2018-11-26T02:29:27.830Z,12.10
2018-11-26T02:31:56.371Z,12.10
2018-11-26T02:34:24.960Z,12.10
2018-11-26T02:36:53.501Z,12.10
2018-11-26T02:39:22.187Z,12.00
2018-11-26T02:41:50.790Z,12.10
2018-11-26T02:44:19.634Z,12.10
2018-11-26T02:46:48.454Z,12.10
2018-11-26T02:49:17.160Z,12.00
2018-11-26T02:51:45.859Z,12.00
2018-11-26T02:54:14.467Z,11.90
2018-11-26T02:56:43.082Z,11.90
2018-11-26T02:59:11.642Z,11.80
2018-11-26T03:01:40.242Z,11.80
2018-11-26T03:04:08.905Z,11.70
2018-11-26T03:06:37.724Z,11.70
2018-11-26T03:09:07.575Z,11.70
2018-11-26T03:11:36.281Z,11.70
2018-11-26T03:14:04.961Z,11.80
2018-11-26T03:16:33.663Z,11.70
2018-11-26T03:19:02.315Z,11.70
2018-11-26T03:21:31.091Z,11.80
2018-11-26T03:23:59.905Z,11.80
2018-11-26T03:26:28.612Z,11.90
2018-11-26T03:28:57.307Z,11.80
2018-11-26T03:31:26.052Z,11.80
2018-11-26T03:33:54.802Z,11.90
2018-11-26T03:36:23.720Z,11.90
2018-11-26T03:38:54.196Z,11.90
2018-11-26T03:41:24.096Z,11.90
2018-11-26T03:43:52.709Z,12.00
2018-11-26T03:46:21.323Z,12.00
2018-11-26T03:48:50.003Z,12.00
2018-11-26T03:51:18.615Z,12.00
2018-11-26T03:53:47.292Z,12.00
2018-11-26T03:56:15.911Z,12.00
2018-11-26T03:58:44.417Z,12.00
2018-11-26T04:01:13.133Z,12.10
2018-11-26T04:03:41.990Z,12.00
2018-11-26T04:06:10.643Z,12.00
2018-11-26T04:08:39.308Z,12.00
2018-11-26T04:11:08.021Z,12.00
2018-11-26T04:13:36.872Z,12.00
2018-11-26T04:16:05.533Z,12.00
2018-11-26T04:18:34.250Z,11.90
2018-11-26T04:21:02.930Z,11.90
2018-11-26T04:23:31.747Z,11.80
2018-11-26T04:26:00.480Z,11.80
2018-11-26T04:28:29.449Z,11.90
2018-11-26T04:30:58.357Z,11.80
2018-11-26T04:33:27.165Z,11.90
2018-11-26T04:35:55.855Z,11.80
2018-11-26T04:38:24.670Z,11.80
2018-11-26T04:40:53.320Z,11.70
2018-11-26T04:43:22.155Z,11.70
2018-11-26T04:45:50.822Z,11.70
2018-11-26T04:48:19.622Z,11.70
2018-11-26T04:50:48.297Z,11.70
2018-11-26T04:53:17.144Z,11.70
2018-11-26T04:55:45.852Z,11.50
2018-11-26T04:58:14.553Z,11.60
2018-11-26T05:00:43.234Z,11.40
2018-11-26T05:03:11.784Z,11.30
2018-11-26T05:05:40.554Z,11.30
2018-11-26T05:08:09.201Z,11.20
2018-11-26T05:10:38.018Z,11.10
2018-11-26T05:13:06.799Z,11.10
2018-11-26T05:15:35.624Z,11.10
2018-11-26T05:18:04.366Z,11.20
2018-11-26T05:20:33.186Z,11.30
2018-11-26T05:23:01.929Z,11.30
2018-11-26T05:25:30.484Z,11.30
2018-11-26T05:27:59.296Z,11.30
2018-11-26T05:30:27.996Z,11.30
2018-11-26T05:32:56.847Z,11.30
2018-11-26T05:35:26.016Z,11.30
2018-11-26T05:37:54.763Z,11.30
2018-11-26T05:40:23.518Z,11.40
2018-11-26T05:42:52.188Z,11.50
2018-11-26T05:45:20.732Z,11.60
2018-11-26T05:47:49.409Z,11.60
2018-11-26T05:50:18.025Z,11.60
2018-11-26T05:52:46.584Z,11.70
2018-11-26T05:55:16.335Z,11.70
2018-11-26T05:57:45.991Z,11.70
2018-11-26T06:00:17.547Z,11.70
2018-11-26T06:02:46.180Z,11.70
2018-11-26T06:05:14.760Z,11.60
2018-11-26T06:07:43.414Z,11.60
2018-11-26T06:10:12.132Z,11.70
2018-11-26T06:12:40.785Z,11.60
2018-11-26T06:15:12.155Z,11.60
2018-11-26T06:17:41.309Z,11.50
2018-11-26T06:20:11.443Z,11.50
2018-11-26T06:22:40.749Z,11.50
2018-11-26T06:25:11.423Z,11.50
2018-11-26T06:27:40.115Z,11.50
2018-11-26T06:30:10.813Z,11.60
2018-11-26T06:32:39.381Z,11.60
2018-11-26T06:35:18.686Z,11.60
2018-11-26T06:37:47.540Z,11.60
2018-11-26T06:40:16.190Z,11.60
2018-11-26T06:42:45.484Z,11.50
2018-11-26T06:45:18.187Z,11.60
2018-11-26T06:47:46.781Z,11.70
2018-11-26T06:50:17.475Z,11.70
2018-11-26T06:52:46.378Z,11.70
2018-11-26T06:55:17.041Z,11.80
2018-11-26T06:57:45.600Z,11.70
2018-11-26T07:00:16.471Z,11.70
2018-11-26T07:02:45.250Z,11.60
2018-11-26T07:05:15.177Z,11.30
2018-11-26T07:07:43.940Z,11.20
2018-11-26T07:10:13.131Z,11.30
2018-11-26T07:12:41.923Z,11.40
2018-11-26T07:15:13.053Z,11.50
2018-11-26T07:17:41.681Z,11.40
2018-11-26T07:20:14.395Z,11.30
2018-11-26T07:22:43.039Z,11.30
2018-11-26T07:25:12.845Z,11.40
2018-11-26T07:27:41.579Z,11.40
2018-11-26T07:30:15.465Z,11.50
2018-11-26T07:32:44.222Z,11.60
2018-11-26T07:35:14.346Z,11.70
2018-11-26T07:37:42.966Z,11.80
2018-11-26T07:40:12.656Z,11.70
2018-11-26T07:42:42.995Z,11.70
2018-11-26T07:45:12.772Z,11.70
2018-11-26T07:47:41.429Z,11.70
2018-11-26T07:50:11.846Z,11.70
2018-11-26T07:52:40.453Z,11.80
2018-11-26T07:55:13.259Z,11.80
2018-11-26T07:57:41.824Z,11.90
2018-11-26T08:00:14.268Z,11.90
2018-11-26T08:02:43.120Z,11.90
2018-11-26T08:05:12.918Z,11.90
2018-11-26T08:07:41.526Z,12.00
2018-11-26T08:10:13.372Z,12.10
2018-11-26T08:12:42.053Z,12.10
2018-11-26T08:15:27.715Z,12.20
2018-11-26T08:17:56.337Z,12.30
2018-11-26T08:20:24.891Z,12.20
2018-11-26T08:22:53.470Z,12.30
2018-11-26T08:25:23.107Z,12.20
2018-11-26T08:27:52.563Z,12.40
2018-11-26T08:30:22.182Z,12.40
2018-11-26T08:32:53.155Z,12.40
2018-11-26T08:35:22.326Z,12.50
2018-11-26T08:37:56.210Z,12.50
2018-11-26T08:40:26.704Z,12.60
2018-11-26T08:43:15.087Z,12.50
2018-11-26T08:45:52.358Z,12.60
2018-11-26T08:48:31.010Z,12.50
2018-11-26T08:51:01.889Z,12.50
2018-11-26T08:53:30.621Z,12.40
2018-11-26T08:55:59.208Z,12.30
2018-11-26T08:58:27.814Z,12.30
2018-11-26T09:01:01.748Z,12.30
2018-11-26T09:03:40.638Z,12.30
2018-11-26T09:06:09.241Z,12.40
2018-11-26T09:08:38.220Z,12.40
2018-11-26T09:11:08.522Z,12.40
2018-11-26T09:13:37.162Z,12.50
2018-11-26T09:16:05.887Z,12.40
2018-11-26T09:18:34.702Z,12.40
2018-11-26T09:21:03.449Z,12.40
2018-11-26T09:23:31.986Z,12.50
2018-11-26T09:26:00.644Z,12.40
2018-11-26T09:28:29.244Z,12.50
2018-11-26T09:30:57.899Z,12.50
2018-11-26T09:33:26.506Z,12.50
2018-11-26T09:35:55.063Z,12.50
2018-11-26T09:38:23.598Z,12.50
2018-11-26T09:40:52.206Z,12.50
2018-11-26T09:43:20.782Z,12.60
2018-11-26T09:45:49.373Z,12.60
2018-11-26T09:48:17.963Z,12.70
2018-11-26T09:50:46.571Z,12.60
2018-11-26T09:53:15.245Z,12.60
2018-11-26T09:55:43.898Z,12.50
2018-11-26T09:58:12.523Z,12.50
2018-11-26T10:00:41.274Z,12.60
2018-11-26T10:03:09.946Z,12.60
2018-11-26T10:05:39.484Z,12.70
2018-11-26T10:08:08.869Z,12.70
2018-11-26T10:10:38.322Z,12.70
2018-11-26T10:13:08.078Z,12.80
2018-11-26T10:15:37.719Z,12.70
2018-11-26T10:18:07.120Z,12.70
2018-11-26T10:20:36.608Z,12.70
2018-11-26T10:23:06.864Z,12.80
2018-11-26T10:25:36.210Z,12.80
2018-11-26T10:28:05.875Z,12.90
2018-11-26T10:30:35.203Z,13.00
2018-11-26T10:33:04.379Z,13.00
2018-11-26T10:35:33.393Z,12.90
2018-11-26T10:38:02.285Z,12.90
2018-11-26T10:40:30.857Z,12.90
2018-11-26T10:42:59.778Z,12.90
2018-11-26T10:45:28.414Z,12.90
2018-11-26T10:47:57.002Z,12.90
2018-11-26T10:50:26.767Z,12.90
2018-11-26T10:52:59.883Z,12.90
2018-11-26T10:55:32.377Z,13.00
2018-11-26T10:58:01.117Z,12.90
2018-11-26T11:00:35.179Z,13.00
2018-11-26T11:03:03.828Z,13.00
2018-11-26T11:05:32.451Z,13.00
2018-11-26T11:08:01.086Z,13.10
2018-11-26T11:10:33.434Z,13.10
2018-11-26T11:13:02.132Z,13.20
2018-11-26T11:15:30.820Z,13.10
2018-11-26T11:17:59.442Z,13.10
2018-11-26T11:20:29.093Z,13.00
2018-11-26T11:22:57.778Z,13.10
2018-11-26T11:25:26.506Z,13.10
2018-11-26T11:27:56.407Z,13.10
2018-11-26T11:30:27.548Z,13.10
2018-11-26T11:32:56.663Z,13.00
2018-11-26T11:35:25.272Z,12.80
2018-11-26T11:37:54.574Z,12.80
2018-11-26T11:40:28.697Z,12.80
2018-11-26T11:42:58.002Z,12.80
2018-11-26T11:45:27.319Z,13.00
2018-11-26T11:47:56.072Z,13.00
2018-11-26T11:50:24.672Z,13.10
2018-11-26T11:52:53.314Z,13.10
2018-11-26T11:55:23.571Z,13.10
2018-11-26T11:57:52.769Z,13.10
2018-11-26T12:00:32.663Z,13.00
2018-11-26T12:03:02.455Z,12.90
2018-11-26T12:05:31.129Z,12.90
2018-11-26T12:07:59.743Z,13.00
2018-11-26T12:10:28.516Z,13.00
2018-11-26T12:12:57.152Z,13.00
2018-11-26T12:15:25.813Z,13.00
2018-11-26T12:17:55.309Z,12.90
2018-11-26T12:20:23.891Z,12.90
2018-11-26T12:22:52.608Z,13.10
2018-11-26T12:25:21.778Z,13.10
2018-11-26T12:27:50.653Z,13.20
2018-11-26T12:30:23.428Z,13.30
2018-11-26T12:32:52.155Z,13.30
2018-11-26T12:35:20.776Z,13.40
2018-11-26T12:37:49.416Z,13.40
2018-11-26T12:40:20.282Z,13.40
2018-11-26T12:42:49.540Z,13.50
2018-11-26T12:45:23.292Z,13.60
2018-11-26T12:47:52.296Z,13.60
2018-11-26T12:50:20.957Z,13.60
2018-11-26T12:52:49.631Z,13.70
2018-11-26T12:55:19.509Z,13.70
2018-11-26T12:57:49.497Z,13.50
2018-11-26T13:00:20.402Z,13.50
2018-11-26T13:02:55.894Z,13.50
2018-11-26T13:05:24.647Z,13.60
2018-11-26T13:07:53.364Z,13.70
2018-11-26T13:10:22.912Z,13.70
2018-11-26T13:12:52.002Z,13.60
2018-11-26T13:15:24.907Z,13.70
2018-11-26T13:17:53.639Z,13.70
2018-11-26T13:20:24.185Z,13.70
2018-11-26T13:22:53.275Z,13.70
2018-11-26T13:25:23.073Z,13.70
2018-11-26T13:27:52.711Z,13.80
2018-11-26T13:30:29.704Z,13.70
2018-11-26T13:33:00.472Z,13.70
2018-11-26T13:35:29.638Z,13.70
2018-11-26T13:37:58.361Z,13.70
2018-11-26T13:40:27.011Z,13.70
2018-11-26T13:42:55.738Z,13.70
2018-11-26T13:45:27.749Z,13.70
2018-11-26T13:47:56.573Z,13.70
2018-11-26T13:50:32.858Z,13.70
2018-11-26T13:53:01.888Z,13.70
2018-11-26T13:55:30.539Z,13.70
2018-11-26T13:57:59.107Z,13.70
2018-11-26T14:00:27.711Z,13.70
2018-11-26T14:02:56.345Z,13.70
2018-11-26T14:05:25.028Z,13.70
2018-11-26T14:07:53.878Z,13.60
2018-11-26T14:10:24.715Z,13.70
2018-11-26T14:12:57.875Z,13.60
2018-11-26T14:15:26.501Z,13.50
2018-11-26T14:17:55.188Z,13.40
2018-11-26T14:20:24.320Z,13.40
2018-11-26T14:22:53.040Z,13.40
2018-11-26T14:25:21.843Z,13.50
2018-11-26T14:27:50.374Z,13.50
2018-11-26T14:30:22.363Z,13.50
2018-11-26T14:32:51.673Z,13.50
2018-11-26T14:35:20.363Z,13.50
2018-11-26T14:37:51.164Z,13.40
2018-11-26T14:40:24.969Z,13.40
2018-11-26T14:42:54.204Z,13.40
2018-11-26T14:45:22.920Z,13.30
2018-11-26T14:47:51.501Z,13.30
2018-11-26T14:50:21.001Z,13.30
2018-11-26T14:52:50.354Z,13.30
2018-11-26T14:55:24.360Z,13.30
2018-11-26T14:57:52.969Z,13.30
2018-11-26T15:00:21.825Z,13.20
2018-11-26T15:02:50.528Z,13.30
2018-11-26T15:05:19.213Z,13.30
2018-11-26T15:07:48.643Z,13.30
2018-11-26T15:10:20.813Z,13.40
2018-11-26T15:12:50.827Z,13.40
2018-11-26T15:15:21.164Z,13.40
2018-11-26T15:17:49.737Z,13.40
2018-11-26T15:20:23.850Z,13.40
2018-11-26T15:22:53.985Z,13.40
2018-11-26T15:25:25.022Z,13.40
2018-11-26T15:27:58.253Z,13.50
2018-11-26T15:30:26.834Z,13.40
2018-11-26T15:32:55.515Z,13.30
2018-11-26T15:35:25.389Z,13.20
2018-11-26T15:37:54.239Z,13.20
2018-11-26T15:40:23.085Z,13.20
2018-11-26T15:42:51.680Z,13.20
2018-11-26T15:45:23.223Z,13.20
2018-11-26T15:47:53.507Z,13.20
2018-11-26T15:50:22.215Z,13.10
2018-11-26T15:52:50.981Z,13.10
2018-11-26T15:55:20.602Z,13.00
2018-11-26T15:57:49.365Z,13.00
2018-11-26T16:00:22.374Z,13.00
2018-11-26T16:02:51.677Z,13.00
2018-11-26T16:05:23.697Z,13.00
2018-11-26T16:07:52.707Z,13.00
2018-11-26T16:10:21.582Z,12.90
2018-11-26T16:12:53.028Z,12.90
2018-11-26T16:15:23.339Z,12.90
2018-11-26T16:17:52.352Z,12.90
2018-11-26T16:20:22.805Z,12.90
2018-11-26T16:22:51.708Z,13.00
2018-11-26T16:25:22.527Z,12.90
2018-11-26T16:27:51.217Z,12.90
2018-11-26T16:30:20.089Z,13.00
2018-11-26T16:32:58.326Z,12.90
2018-11-26T16:35:29.259Z,12.90
2018-11-26T16:37:58.200Z,13.00
2018-11-26T16:40:27.371Z,12.90
2018-11-26T16:42:56.720Z,13.00
2018-11-26T16:45:26.676Z,13.10
2018-11-26T16:47:56.107Z,13.10
2018-11-26T16:50:26.174Z,13.10
2018-11-26T16:52:55.015Z,13.20
2018-11-26T16:55:23.565Z,13.20
2018-11-26T16:57:52.336Z,13.10
2018-11-26T17:00:25.249Z,13.20
2018-11-26T17:02:55.424Z,13.10
2018-11-26T17:05:33.382Z,13.10
2018-11-26T17:08:02.058Z,13.10
2018-11-26T17:10:30.864Z,13.10
2018-11-26T17:12:59.543Z,13.10
2018-11-26T17:15:28.250Z,13.00
2018-11-26T17:17:56.811Z,13.00
2018-11-26T17:20:25.626Z,12.90
2018-11-26T17:22:54.177Z,12.90
2018-11-26T17:25:22.812Z,12.90
2018-11-26T17:27:51.520Z,12.80
2018-11-26T17:30:26.401Z,12.80
2018-11-26T17:33:00.481Z,12.80
2018-11-26T17:35:29.693Z,12.80
2018-11-26T17:37:58.468Z,12.80
2018-11-26T17:40:27.598Z,12.80
2018-11-26T17:42:56.336Z,12.80
2018-11-26T17:45:25.537Z,12.80
2018-11-26T17:47:55.303Z,12.80
2018-11-26T17:50:26.204Z,12.80
2018-11-26T17:52:54.961Z,12.80
2018-11-26T17:55:23.720Z,12.80
2018-11-26T17:57:52.690Z,12.70
2018-11-26T18:00:33.572Z,12.60
2018-11-26T18:03:02.259Z,12.60
2018-11-26T18:05:31.557Z,12.60
2018-11-26T18:08:03.502Z,12.60
2018-11-26T18:10:32.078Z,12.70
2018-11-26T18:13:00.642Z,12.60
2018-11-26T18:15:29.259Z,12.50
2018-11-26T18:17:57.960Z,12.50
2018-11-26T18:20:26.688Z,12.40
2018-11-26T18:22:55.460Z,12.50
2018-11-26T18:25:25.499Z,12.40
2018-11-26T18:27:59.095Z,12.40
2018-11-26T18:30:30.272Z,12.40
2018-11-26T18:32:58.989Z,12.30
2018-11-26T18:35:27.548Z,12.20
2018-11-26T18:37:56.221Z,12.20
2018-11-26T18:40:24.814Z,12.10
2018-11-26T18:42:53.515Z,12.10
2018-11-26T18:45:22.233Z,12.20
2018-11-26T18:47:51.016Z,12.30
2018-11-26T18:50:20.695Z,12.30
2018-11-26T18:52:50.111Z,12.30
2018-11-26T18:55:18.919Z,12.30
2018-11-26T18:57:47.550Z,12.30
2018-11-26T19:00:23.528Z,12.30
2018-11-26T19:02:52.908Z,12.20
2018-11-26T19:05:21.554Z,12.10
2018-11-26T19:07:51.014Z,12.10
2018-11-26T19:10:21.981Z,12.30
2018-11-26T19:12:54.267Z,12.40
2018-11-26T19:15:34.784Z,12.50
2018-11-26T19:18:21.939Z,12.50
2018-11-26T19:20:50.679Z,12.60
2018-11-26T19:23:19.235Z,12.70
2018-11-26T19:25:49.349Z,12.70
2018-11-26T19:28:20.446Z,12.60
2018-11-26T19:30:47.780Z,12.60
2018-11-26T19:33:16.644Z,12.60
2018-11-26T19:35:45.254Z,12.50
2018-11-26T19:38:13.920Z,12.50
2018-11-26T19:40:42.617Z,12.40
2018-11-26T19:43:11.302Z,12.50
2018-11-26T19:45:39.992Z,12.40
2018-11-26T19:48:09.284Z,12.50
2018-11-26T19:50:38.545Z,12.50
2018-11-26T19:53:09.453Z,12.60
2018-11-26T19:55:38.205Z,12.60
2018-11-26T19:58:08.041Z,12.60
2018-11-26T20:00:36.961Z,12.50
2018-11-26T20:03:17.337Z,12.50
2018-11-26T20:06:21.775Z,12.50
2018-11-26T20:08:56.632Z,12.40
2018-11-26T20:11:25.154Z,12.50
2018-11-26T20:13:53.773Z,12.50
2018-11-26T20:16:24.591Z,12.40
2018-11-26T20:18:53.329Z,12.40
2018-11-26T20:21:21.896Z,12.40
2018-11-26T20:23:50.555Z,12.40
2018-11-26T20:26:20.611Z,12.40
2018-11-26T20:28:49.240Z,12.40
2018-11-26T20:31:18.131Z,12.30
2018-11-26T20:33:46.744Z,12.30
2018-11-26T20:36:15.747Z,12.40
2018-11-26T20:38:44.402Z,12.40
2018-11-26T20:41:43.195Z,12.50
2018-11-26T20:44:12.086Z,12.50
2018-11-26T20:46:40.701Z,12.50
2018-11-26T20:49:09.808Z,12.60
2018-11-26T20:55:16.697Z,12.60
2018-11-26T20:57:45.563Z,12.60
2018-11-26T21:00:20.945Z,12.60
2018-11-26T21:02:51.935Z,12.70
2018-11-26T21:05:20.521Z,12.60
2018-11-26T21:07:49.193Z,12.50
2018-11-26T21:10:17.903Z,12.60
2018-11-26T21:12:46.568Z,12.40
2018-11-26T21:15:17.626Z,12.40
2018-11-26T21:17:49.485Z,12.20
2018-11-26T21:20:25.849Z,12.00
2018-11-26T21:22:54.911Z,11.80
2018-11-26T21:25:23.550Z,11.80
2018-11-26T21:27:52.214Z,11.90
2018-11-26T21:30:20.899Z,11.80
2018-11-26T21:32:49.560Z,11.90
2018-11-26T21:35:19.291Z,12.00
2018-11-26T21:37:49.207Z,12.10
2018-11-26T21:40:20.645Z,12.10
2018-11-26T21:42:49.148Z,12.00
2018-11-26T21:45:34.209Z,12.00
2018-11-26T21:48:02.837Z,11.90
2018-11-26T21:50:31.390Z,11.80
2018-11-26T21:52:59.977Z,11.70
2018-11-26T21:55:28.714Z,11.60
2018-11-26T21:57:57.790Z,11.50
2018-11-26T22:00:28.695Z,11.50
2018-11-26T22:02:57.781Z,11.60
2018-11-26T22:05:26.420Z,11.60
2018-11-26T22:07:54.967Z,11.50
2018-11-26T22:10:25.270Z,11.40
2018-11-26T22:12:56.318Z,11.30
2018-11-26T22:15:25.052Z,11.40
2018-11-26T22:17:53.571Z,11.30
2018-11-26T22:20:24.519Z,11.20
2018-11-26T22:22:53.389Z,11.30
2018-11-26T22:25:22.029Z,11.20
2018-11-26T22:27:50.946Z,11.30
2018-11-26T22:30:24.413Z,11.30
2018-11-26T22:32:53.077Z,11.30
2018-11-26T22:35:21.680Z,11.30
2018-11-26T22:37:50.395Z,11.20
2018-11-26T22:40:20.966Z,11.40
2018-11-26T22:42:49.623Z,11.40
2018-11-26T22:45:20.120Z,11.50
2018-11-26T22:47:56.556Z,11.40
2018-11-26T22:50:25.263Z,11.40
2018-11-26T22:52:54.487Z,11.40
2018-11-26T22:55:23.102Z,11.30
2018-11-26T22:57:51.794Z,11.40
2018-11-26T23:00:28.572Z,11.40
2018-11-26T23:03:01.932Z,11.50
2018-11-26T23:05:32.524Z,11.50
2018-11-26T23:11:09.054Z,11.50
2018-11-26T23:13:43.119Z,11.70
2018-11-26T23:16:30.008Z,11.80
2018-11-26T23:18:58.599Z,11.70
2018-11-26T23:21:27.081Z,11.60
2018-11-26T23:23:55.771Z,11.60
2018-11-26T23:26:24.317Z,11.60
2018-11-26T23:28:52.918Z,11.60
2018-11-26T23:31:21.576Z,11.70
2018-11-26T23:33:50.100Z,11.70
2018-11-26T23:36:18.682Z,11.70
2018-11-26T23:38:47.281Z,11.70
2018-11-26T23:41:15.967Z,11.70
2018-11-26T23:43:46.081Z,11.60
2018-11-26T23:46:15.369Z,11.50
2018-11-26T23:48:44.072Z,11.60
2018-11-26T23:51:12.753Z,11.70
2018-11-26T23:53:41.379Z,11.70
2018-11-26T23:56:10.006Z,11.70
2018-11-26T23:58:38.992Z,11.70
